Time;durP1;ratioP1;P1;durP2;ratioP2;P2;SDS_P1;SDS_P2;PMS_P1;PMS_P2;Temp;Humidity;BMP_temperature;BMP_pressure;BME280_temperature;BME280_humidity;BME280_pressure;Samples;Min_cycle;Max_cycle;Signal;HPM_P1;HPM_P2
2024/02/05 00:00:43;;;;;;;;;;;6.00;100.00;;;;;;5008056;28;19971;-67
2024/02/05 00:03:10;;;;;;;;;;;6.00;100.00;;;;;;5006938;28;19925;-67
2024/02/05 00:05:37;;;;;;;;;;;6.00;100.00;;;;;;5009917;28;20007;-67
2024/02/05 00:08:05;;;;;;;;;;;6.10;100.00;;;;;;5015309;28;19984;-67
2024/02/05 00:10:33;;;;;;;;;;;6.10;100.00;;;;;;5007184;28;19931;-68
2024/02/05 00:13:00;;;;;;;;;;;6.10;100.00;;;;;;5006871;28;19929;-67
2024/02/05 00:15:27;;;;;;;;;;;6.10;100.00;;;;;;5006843;28;19930;-67
2024/02/05 00:17:53;;;;;;;;;;;6.10;100.00;;;;;;5007183;28;19930;-68
2024/02/05 00:20:20;;;;;;;;;;;6.10;100.00;;;;;;5008115;28;20291;-67
2024/02/05 00:22:47;;;;;;;;;;;6.10;100.00;;;;;;5000352;28;20293;-68
2024/02/05 00:25:14;;;;;;;;;;;6.10;100.00;;;;;;5015422;28;20042;-67
2024/02/05 00:27:42;;;;;;;;;;;6.10;100.00;;;;;;5007098;28;19964;-67
2024/02/05 00:30:10;;;;;;;;;;;6.10;100.00;;;;;;5006774;28;19981;-67
2024/02/05 00:32:39;;;;;;;;;;;6.10;100.00;;;;;;5006992;28;19929;-67
2024/02/05 00:35:08;;;;;;;;;;;6.10;100.00;;;;;;5005861;28;20622;-67
2024/02/05 00:37:35;;;;;;;;;;;6.20;100.00;;;;;;4988156;28;20503;-68
2024/02/05 00:40:05;;;;;;;;;;;6.20;100.00;;;;;;4986906;28;19929;-68
2024/02/05 00:42:32;;;;;;;;;;;6.20;100.00;;;;;;4989592;28;19958;-67
2024/02/05 00:44:59;;;;;;;;;;;6.20;100.00;;;;;;5000331;28;20134;-69
2024/02/05 00:47:26;;;;;;;;;;;6.20;100.00;;;;;;5004471;28;19933;-68
2024/02/05 00:49:53;;;;;;;;;;;6.20;100.00;;;;;;5007886;28;19933;-68
2024/02/05 00:52:20;;;;;;;;;;;6.20;100.00;;;;;;5005628;28;19926;-68
2024/02/05 00:54:47;;;;;;;;;;;6.20;100.00;;;;;;5005953;28;20658;-68
2024/02/05 00:57:14;;;;;;;;;;;6.20;100.00;;;;;;5015561;28;19937;-67
2024/02/05 00:59:41;;;;;;;;;;;6.30;100.00;;;;;;5004703;28;19936;-68
2024/02/05 01:02:08;;;;;;;;;;;6.30;100.00;;;;;;5011007;28;19933;-68
2024/02/05 01:04:35;;;;;;;;;;;6.30;100.00;;;;;;4993115;28;19956;-68
2024/02/05 01:07:02;;;;;;;;;;;6.30;100.00;;;;;;5006327;28;19929;-67
2024/02/05 01:09:29;;;;;;;;;;;6.40;100.00;;;;;;5014792;28;19936;-67
2024/02/05 01:11:55;;;;;;;;;;;6.40;100.00;;;;;;5003221;28;20009;-67
2024/02/05 01:14:22;;;;;;;;;;;6.40;100.00;;;;;;5013855;28;19929;-67
2024/02/05 01:16:49;;;;;;;;;;;6.40;100.00;;;;;;5016919;28;19961;-67
2024/02/05 01:19:16;;;;;;;;;;;6.40;100.00;;;;;;5006468;28;19930;-67
2024/02/05 01:21:43;;;;;;;;;;;6.40;100.00;;;;;;4988185;28;20706;-67
2024/02/05 01:24:10;;;;;;;;;;;6.40;100.00;;;;;;5006652;28;19925;-67
2024/02/05 01:26:37;;;;;;;;;;;6.50;100.00;;;;;;5005456;28;20321;-68
2024/02/05 01:29:06;;;;;;;;;;;6.40;100.00;;;;;;4990978;28;20020;-67
2024/02/05 01:31:33;;;;;;;;;;;6.50;100.00;;;;;;5011245;28;20592;-68
2024/02/05 01:34:00;;;;;;;;;;;6.50;100.00;;;;;;5006087;28;19926;-67
2024/02/05 01:36:28;;;;;;;;;;;6.50;100.00;;;;;;5005982;28;19933;-67
2024/02/05 01:38:55;;;;;;;;;;;6.50;100.00;;;;;;5004157;28;20705;-67
2024/02/05 01:41:21;;;;;;;;;;;6.50;100.00;;;;;;5005622;28;20480;-67
2024/02/05 01:43:48;;;;;;;;;;;6.60;100.00;;;;;;5009056;28;19983;-67
2024/02/05 01:46:19;;;;;;;;;;;6.60;100.00;;;;;;4988849;28;20003;-67
2024/02/05 01:48:49;;;;;;;;;;;6.60;100.00;;;;;;5005255;28;20028;-68
2024/02/05 01:51:16;;;;;;;;;;;6.60;100.00;;;;;;5008108;28;20496;-68
2024/02/05 01:53:43;;;;;;;;;;;6.70;100.00;;;;;;5021249;28;19930;-67
2024/02/05 01:56:10;;;;;;;;;;;6.70;100.00;;;;;;5020623;28;19929;-68
2024/02/05 01:58:38;;;;;;;;;;;6.60;100.00;;;;;;5005926;28;20005;-68
2024/02/05 02:01:09;;;;;;;;;;;6.70;100.00;;;;;;5002719;28;20023;-67
2024/02/05 02:03:40;;;;;;;;;;;6.70;100.00;;;;;;5015944;28;19975;-67
2024/02/05 02:06:08;;;;;;;;;;;6.80;100.00;;;;;;4975696;28;20730;-67
2024/02/05 02:08:38;;;;;;;;;;;6.80;100.00;;;;;;5010781;28;19940;-67
2024/02/05 02:11:05;;;;;;;;;;;6.80;100.00;;;;;;5007851;28;19933;-67
2024/02/05 02:13:32;;;;;;;;;;;6.80;100.00;;;;;;4991810;28;20365;-67
2024/02/05 02:16:00;;;;;;;;;;;6.80;100.00;;;;;;5017527;28;19933;-67
2024/02/05 02:18:28;;;;;;;;;;;6.80;100.00;;;;;;5009266;28;19933;-67
2024/02/05 02:20:58;;;;;;;;;;;6.90;100.00;;;;;;5009239;28;20010;-68
2024/02/05 02:23:29;;;;;;;;;;;6.90;100.00;;;;;;4994611;28;19987;-67
2024/02/05 02:25:58;;;;;;;;;;;6.90;100.00;;;;;;5017150;28;19936;-67
2024/02/05 02:28:25;;;;;;;;;;;6.90;100.00;;;;;;5008457;28;19937;-67
2024/02/05 02:30:54;;;;;;;;;;;6.90;100.00;;;;;;5008961;28;19983;-68
2024/02/05 02:33:27;;;;;;;;;;;6.90;100.00;;;;;;5008811;28;20390;-67
2024/02/05 02:35:54;;;;;;;;;;;6.90;100.00;;;;;;5009088;28;19930;-67
2024/02/05 02:38:26;;;;;;;;;;;7.00;100.00;;;;;;5008297;28;19933;-67
2024/02/05 02:40:55;;;;;;;;;;;7.00;100.00;;;;;;5020483;28;19992;-67
2024/02/05 02:43:22;;;;;;;;;;;7.00;100.00;;;;;;5021222;28;19929;-67
2024/02/05 02:45:51;;;;;;;;;;;7.00;100.00;;;;;;5015495;28;20400;-67
2024/02/05 02:48:19;;;;;;;;;;;7.00;100.00;;;;;;4995001;28;20280;-67
2024/02/05 02:50:46;;;;;;;;;;;7.00;100.00;;;;;;5008788;28;19929;-67
2024/02/05 02:53:13;;;;;;;;;;;7.00;100.00;;;;;;4991402;28;20756;-67
2024/02/05 02:55:40;;;;;;;;;;;7.00;100.00;;;;;;5015343;28;19972;-67
2024/02/05 02:58:07;;;;;;;;;;;7.00;100.00;;;;;;5018098;28;19996;-67
2024/02/05 03:00:35;;;;;;;;;;;7.00;100.00;;;;;;5008281;28;19936;-67
2024/02/05 03:03:03;;;;;;;;;;;7.10;100.00;;;;;;5009052;28;19932;-67
2024/02/05 03:05:29;;;;;;;;;;;7.10;100.00;;;;;;5010375;28;20004;-67
2024/02/05 03:07:56;;;;;;;;;;;7.10;100.00;;;;;;5008064;28;20114;-68
2024/02/05 03:10:23;;;;;;;;;;;7.10;100.00;;;;;;5008380;28;20024;-67
2024/02/05 03:12:50;;;;;;;;;;;7.10;100.00;;;;;;4991352;28;20032;-67
2024/02/05 03:15:16;;;;;;;;;;;7.10;100.00;;;;;;5011754;28;19929;-67
2024/02/05 03:17:43;;;;;;;;;;;7.10;100.00;;;;;;5005323;28;20067;-67
2024/02/05 03:20:13;;;;;;;;;;;7.10;100.00;;;;;;4998866;28;19926;-68
2024/02/05 03:22:41;;;;;;;;;;;7.10;100.00;;;;;;5007683;28;19952;-67
2024/02/05 03:25:10;;;;;;;;;;;7.10;100.00;;;;;;5007749;28;20028;-67
2024/02/05 03:27:37;;;;;;;;;;;7.10;100.00;;;;;;5007815;28;19934;-67
2024/02/05 03:30:04;;;;;;;;;;;7.10;100.00;;;;;;5008185;28;19983;-67
2024/02/05 03:32:30;;;;;;;;;;;7.10;100.00;;;;;;5027975;28;20032;-68
2024/02/05 03:34:57;;;;;;;;;;;7.10;100.00;;;;;;5007683;28;20016;-67
2024/02/05 03:37:24;;;;;;;;;;;7.10;100.00;;;;;;5007436;28;20633;-68
2024/02/05 03:39:51;;;;;;;;;;;7.10;100.00;;;;;;5007195;28;19930;-67
2024/02/05 03:42:18;;;;;;;;;;;7.00;100.00;;;;;;5007322;28;19957;-67
2024/02/05 03:44:45;;;;;;;;;;;7.00;100.00;;;;;;5006138;28;19925;-67
2024/02/05 03:47:12;;;;;;;;;;;7.00;100.00;;;;;;5007002;28;19983;-67
2024/02/05 03:49:38;;;;;;;;;;;7.00;100.00;;;;;;5009307;28;20596;-67
2024/02/05 03:52:05;;;;;;;;;;;7.00;100.00;;;;;;5007882;28;19929;-67
2024/02/05 03:54:34;;;;;;;;;;;7.00;100.00;;;;;;5007714;28;19931;-67
2024/02/05 03:57:00;;;;;;;;;;;7.00;100.00;;;;;;5007450;28;19933;-67
2024/02/05 03:59:28;;;;;;;;;;;6.90;100.00;;;;;;5006921;28;19979;-67
2024/02/05 04:01:54;;;;;;;;;;;6.90;100.00;;;;;;5006793;28;19953;-67
2024/02/05 04:04:21;;;;;;;;;;;6.90;100.00;;;;;;5014222;28;20020;-68
2024/02/05 04:06:48;;;;;;;;;;;6.90;100.00;;;;;;5020328;28;19936;-67
2024/02/05 04:09:16;;;;;;;;;;;7.00;100.00;;;;;;5008183;28;19933;-68
2024/02/05 04:11:42;;;;;;;;;;;6.90;100.00;;;;;;5007411;28;19933;-67
2024/02/05 04:14:10;;;;;;;;;;;6.90;100.00;;;;;;5002886;28;20012;-67
2024/02/05 04:16:37;;;;;;;;;;;6.90;100.00;;;;;;5015409;28;20019;-68
2024/02/05 04:19:03;;;;;;;;;;;6.90;100.00;;;;;;5005936;28;20018;-67
2024/02/05 04:21:30;;;;;;;;;;;7.00;100.00;;;;;;5021281;28;19929;-68
2024/02/05 04:23:57;;;;;;;;;;;7.00;100.00;;;;;;5018582;28;20047;-67
2024/02/05 04:26:24;;;;;;;;;;;7.00;100.00;;;;;;5006617;28;19947;-68
2024/02/05 04:28:51;;;;;;;;;;;7.00;100.00;;;;;;4993358;28;20031;-68
2024/02/05 04:31:18;;;;;;;;;;;7.00;100.00;;;;;;5006044;28;20363;-68
2024/02/05 04:33:47;;;;;;;;;;;7.00;100.00;;;;;;4991568;28;19925;-68
2024/02/05 04:36:15;;;;;;;;;;;7.00;100.00;;;;;;5009210;28;20350;-68
2024/02/05 04:38:42;;;;;;;;;;;7.00;100.00;;;;;;5014209;28;19933;-68
2024/02/05 04:41:10;;;;;;;;;;;7.00;100.00;;;;;;5006321;28;20777;-67
2024/02/05 04:43:38;;;;;;;;;;;7.00;100.00;;;;;;5005951;28;20342;-67
2024/02/05 04:46:09;;;;;;;;;;;7.00;100.00;;;;;;5006523;28;19971;-67
2024/02/05 04:48:37;;;;;;;;;;;7.00;100.00;;;;;;5006601;28;19930;-68
2024/02/05 04:51:11;;;;;;;;;;;7.00;100.00;;;;;;5007367;28;19973;-67
2024/02/05 04:53:39;;;;;;;;;;;7.00;100.00;;;;;;5016137;28;20393;-67
2024/02/05 04:56:06;;;;;;;;;;;7.00;100.00;;;;;;5015740;28;19947;-68
2024/02/05 04:58:32;;;;;;;;;;;7.00;100.00;;;;;;5004395;28;19929;-67
2024/02/05 05:00:59;;;;;;;;;;;7.00;100.00;;;;;;4990417;28;20031;-68
2024/02/05 05:03:26;;;;;;;;;;;7.00;100.00;;;;;;5014156;28;19934;-68
2024/02/05 05:05:53;;;;;;;;;;;6.90;100.00;;;;;;5004924;28;19926;-68
2024/02/05 05:08:19;;;;;;;;;;;6.90;100.00;;;;;;5010326;28;19952;-68
2024/02/05 05:10:46;;;;;;;;;;;6.90;100.00;;;;;;5019260;28;19930;-68
2024/02/05 05:13:13;;;;;;;;;;;6.90;100.00;;;;;;5006002;28;19930;-68
2024/02/05 05:15:40;;;;;;;;;;;6.90;100.00;;;;;;5005611;28;20743;-68
2024/02/05 05:18:07;;;;;;;;;;;7.00;100.00;;;;;;5015139;28;20379;-68
2024/02/05 05:20:34;;;;;;;;;;;7.00;100.00;;;;;;5007917;28;19934;-67
2024/02/05 05:23:01;;;;;;;;;;;7.00;100.00;;;;;;5004340;28;19988;-67
2024/02/05 05:25:28;;;;;;;;;;;6.90;100.00;;;;;;5005489;28;20018;-67
2024/02/05 05:27:54;;;;;;;;;;;7.00;100.00;;;;;;5004759;28;20034;-67
2024/02/05 05:30:21;;;;;;;;;;;6.90;100.00;;;;;;5004953;28;19929;-67
2024/02/05 05:32:48;;;;;;;;;;;6.90;100.00;;;;;;5005782;28;19969;-67
2024/02/05 05:35:15;;;;;;;;;;;6.90;100.00;;;;;;5013202;28;20617;-67
2024/02/05 05:37:43;;;;;;;;;;;6.90;100.00;;;;;;5011744;28;19973;-68
2024/02/05 05:40:10;;;;;;;;;;;6.90;100.00;;;;;;4995751;28;19961;-68
2024/02/05 05:42:37;;;;;;;;;;;6.80;100.00;;;;;;5005952;28;19965;-67
2024/02/05 05:45:04;;;;;;;;;;;6.80;100.00;;;;;;5006091;28;19930;-67
2024/02/05 05:47:31;;;;;;;;;;;6.80;100.00;;;;;;4990789;28;19937;-67
2024/02/05 05:50:00;;;;;;;;;;;6.80;100.00;;;;;;5017085;28;20618;-67
2024/02/05 05:52:27;;;;;;;;;;;6.80;100.00;;;;;;4999035;28;20019;-68
2024/02/05 05:54:54;;;;;;;;;;;6.80;100.00;;;;;;5012641;28;19987;-68
2024/02/05 05:57:21;;;;;;;;;;;6.80;100.00;;;;;;5017688;28;20368;-68
2024/02/05 05:59:48;;;;;;;;;;;6.80;100.00;;;;;;5009177;28;19925;-68
2024/02/05 06:02:15;;;;;;;;;;;6.80;100.00;;;;;;5008861;28;19984;-68
2024/02/05 06:04:41;;;;;;;;;;;6.80;100.00;;;;;;4990936;28;20506;-68
2024/02/05 06:07:08;;;;;;;;;;;6.80;100.00;;;;;;4991686;28;20459;-68
2024/02/05 06:09:36;;;;;;;;;;;6.80;100.00;;;;;;4997054;28;19976;-68
2024/02/05 06:12:02;;;;;;;;;;;6.80;100.00;;;;;;4992151;28;19965;-68
2024/02/05 06:14:30;;;;;;;;;;;6.80;100.00;;;;;;4997047;28;19929;-68
2024/02/05 06:16:57;;;;;;;;;;;6.80;100.00;;;;;;5010295;28;19929;-68
2024/02/05 06:19:24;;;;;;;;;;;6.80;100.00;;;;;;5008913;28;19968;-68
2024/02/05 06:21:51;;;;;;;;;;;6.80;100.00;;;;;;5007557;28;19929;-68
2024/02/05 06:24:18;;;;;;;;;;;6.80;100.00;;;;;;5008191;28;19936;-68
2024/02/05 06:26:45;;;;;;;;;;;6.80;100.00;;;;;;5003259;28;20406;-68
2024/02/05 06:29:12;;;;;;;;;;;6.70;100.00;;;;;;4993978;28;20377;-68
2024/02/05 06:31:39;;;;;;;;;;;6.70;100.00;;;;;;5013651;28;19994;-68
2024/02/05 06:34:06;;;;;;;;;;;6.70;100.00;;;;;;4991611;28;19969;-68
2024/02/05 06:36:36;;;;;;;;;;;6.70;100.00;;;;;;5008142;28;19964;-68
2024/02/05 06:39:03;;;;;;;;;;;6.70;100.00;;;;;;5007910;28;20003;-68
2024/02/05 06:41:33;;;;;;;;;;;6.70;100.00;;;;;;5008739;28;19930;-68
2024/02/05 06:44:00;;;;;;;;;;;6.70;100.00;;;;;;5014725;28;19932;-68
2024/02/05 06:46:27;;;;;;;;;;;6.70;100.00;;;;;;5006473;28;19930;-68
2024/02/05 06:48:54;;;;;;;;;;;6.70;100.00;;;;;;5007506;28;19950;-68
2024/02/05 06:51:21;;;;;;;;;;;6.70;100.00;;;;;;5007409;28;19929;-68
2024/02/05 06:53:47;;;;;;;;;;;6.70;100.00;;;;;;5011757;28;19987;-68
2024/02/05 06:56:14;;;;;;;;;;;6.70;100.00;;;;;;5008185;28;20362;-68
2024/02/05 06:58:41;;;;;;;;;;;6.70;100.00;;;;;;5011731;28;19929;-68
2024/02/05 07:01:08;;;;;;;;;;;6.70;100.00;;;;;;5016100;28;19971;-68
2024/02/05 07:03:35;;;;;;;;;;;6.70;100.00;;;;;;4996762;28;19937;-68
2024/02/05 07:06:02;;;;;;;;;;;6.70;100.00;;;;;;5009969;28;20009;-68
2024/02/05 07:08:29;;;;;;;;;;;6.70;100.00;;;;;;5013489;28;19929;-68
2024/02/05 07:10:55;;;;;;;;;;;6.70;100.00;;;;;;5007502;28;19966;-68
2024/02/05 07:13:22;;;;;;;;;;;6.70;100.00;;;;;;5007991;28;20012;-68
2024/02/05 07:15:49;;;;;;;;;;;6.70;100.00;;;;;;4994537;28;19940;-68
2024/02/05 07:18:16;;;;;;;;;;;6.70;100.00;;;;;;5006899;28;19974;-68
2024/02/05 07:20:43;;;;;;;;;;;6.70;100.00;;;;;;5006063;28;20306;-68
2024/02/05 07:23:09;;;;;;;;;;;6.80;100.00;;;;;;5023725;28;19932;-68
2024/02/05 07:25:39;;;;;;;;;;;6.80;100.00;;;;;;5006246;28;20055;-68
2024/02/05 07:28:06;;;;;;;;;;;6.80;100.00;;;;;;5006326;28;19926;-68
2024/02/05 07:30:33;;;;;;;;;;;6.80;100.00;;;;;;5007602;28;20374;-68
2024/02/05 07:33:00;;;;;;;;;;;6.80;100.00;;;;;;5006804;28;19933;-68
2024/02/05 07:35:27;;;;;;;;;;;6.80;100.00;;;;;;5013144;28;20435;-68
2024/02/05 07:37:54;;;;;;;;;;;6.80;100.00;;;;;;5007177;28;19930;-68
2024/02/05 07:40:21;;;;;;;;;;;6.80;100.00;;;;;;5007365;28;19936;-68
2024/02/05 07:42:48;;;;;;;;;;;6.80;100.00;;;;;;5009369;28;19929;-68
2024/02/05 07:45:15;;;;;;;;;;;6.80;100.00;;;;;;5021988;28;20000;-68
2024/02/05 07:47:42;;;;;;;;;;;6.90;100.00;;;;;;5006526;28;19983;-68
2024/02/05 07:50:09;;;;;;;;;;;6.80;100.00;;;;;;5015488;28;20019;-68
2024/02/05 07:52:36;;;;;;;;;;;6.90;100.00;;;;;;5019682;28;19936;-68
2024/02/05 07:55:02;;;;;;;;;;;6.90;100.00;;;;;;5007217;28;20011;-68
2024/02/05 07:57:34;;;;;;;;;;;6.90;100.00;;;;;;5006676;28;20460;-69
2024/02/05 08:00:01;;;;;;;;;;;6.90;100.00;;;;;;5005852;28;20049;-68
2024/02/05 08:02:28;;;;;;;;;;;6.90;100.00;;;;;;5008758;28;20620;-68
2024/02/05 08:04:55;;;;;;;;;;;6.90;100.00;;;;;;5006251;28;19925;-68
2024/02/05 08:07:22;;;;;;;;;;;7.00;100.00;;;;;;5017933;28;19984;-68
2024/02/05 08:09:49;;;;;;;;;;;7.00;100.00;;;;;;5005008;28;19934;-68
2024/02/05 08:12:17;;;;;;;;;;;7.00;100.00;;;;;;5000834;28;19929;-68
2024/02/05 08:14:44;;;;;;;;;;;7.00;100.00;;;;;;5015109;28;19934;-68
2024/02/05 08:17:11;;;;;;;;;;;7.00;100.00;;;;;;5006411;28;19925;-68
2024/02/05 08:19:37;;;;;;;;;;;7.00;100.00;;;;;;5006033;28;20322;-68
2024/02/05 08:22:05;;;;;;;;;;;7.00;100.00;;;;;;5005678;28;19940;-68
2024/02/05 08:24:31;;;;;;;;;;;7.00;100.00;;;;;;5015219;28;20028;-68
2024/02/05 08:27:00;;;;;;;;;;;7.10;100.00;;;;;;5019816;28;19929;-68
2024/02/05 08:29:27;;;;;;;;;;;7.10;100.00;;;;;;5007062;28;19930;-68
2024/02/05 08:31:54;;;;;;;;;;;7.10;100.00;;;;;;5006517;28;19933;-68
2024/02/05 08:34:21;;;;;;;;;;;7.10;100.00;;;;;;4988899;28;19929;-68
2024/02/05 08:36:48;;;;;;;;;;;7.10;100.00;;;;;;5005468;28;19949;-68
2024/02/05 08:39:15;;;;;;;;;;;7.10;100.00;;;;;;5012509;28;20006;-68
2024/02/05 08:41:42;;;;;;;;;;;7.20;100.00;;;;;;5006575;28;19930;-68
2024/02/05 08:44:08;;;;;;;;;;;7.20;100.00;;;;;;5007467;28;19933;-68
2024/02/05 08:46:35;;;;;;;;;;;7.20;100.00;;;;;;5013231;28;19925;-68
2024/02/05 08:49:02;;;;;;;;;;;7.20;100.00;;;;;;5006421;28;19936;-68
2024/02/05 08:51:30;;;;;;;;;;;7.20;100.00;;;;;;5006345;28;19929;-68
2024/02/05 08:53:57;;;;;;;;;;;7.30;100.00;;;;;;5014277;28;19994;-68
2024/02/05 08:56:24;;;;;;;;;;;7.30;100.00;;;;;;5005310;28;20374;-68
2024/02/05 08:58:51;;;;;;;;;;;7.30;100.00;;;;;;5017651;28;19933;-68
2024/02/05 09:01:18;;;;;;;;;;;7.30;100.00;;;;;;5009284;28;19929;-68
2024/02/05 09:03:45;;;;;;;;;;;7.30;100.00;;;;;;5008089;28;19929;-68
2024/02/05 09:06:12;;;;;;;;;;;7.30;100.00;;;;;;5019755;28;19937;-68
2024/02/05 09:08:39;;;;;;;;;;;7.30;100.00;;;;;;5013810;28;19929;-68
2024/02/05 09:11:06;;;;;;;;;;;7.30;100.00;;;;;;5007593;28;19929;-68
2024/02/05 09:13:33;;;;;;;;;;;7.30;100.00;;;;;;5014630;28;20015;-68
2024/02/05 09:16:00;;;;;;;;;;;7.40;100.00;;;;;;5007146;28;19983;-68
2024/02/05 09:18:27;;;;;;;;;;;7.40;100.00;;;;;;5006821;28;20391;-68
2024/02/05 09:20:54;;;;;;;;;;;7.40;100.00;;;;;;5009157;28;19933;-69
2024/02/05 09:23:20;;;;;;;;;;;7.40;100.00;;;;;;5012391;28;19929;-68
2024/02/05 09:25:47;;;;;;;;;;;7.40;100.00;;;;;;5012412;28;19929;-68
2024/02/05 09:28:14;;;;;;;;;;;7.40;100.00;;;;;;4994257;28;19973;-68
2024/02/05 09:30:41;;;;;;;;;;;7.40;100.00;;;;;;5020066;28;19929;-68
2024/02/05 09:33:08;;;;;;;;;;;7.40;100.00;;;;;;5015319;28;19925;-69
2024/02/05 09:35:35;;;;;;;;;;;7.40;100.00;;;;;;5012519;28;19934;-68
2024/02/05 09:38:02;;;;;;;;;;;7.40;100.00;;;;;;5010853;28;19933;-68
2024/02/05 09:40:33;;;;;;;;;;;7.40;100.00;;;;;;5015006;28;20040;-68
2024/02/05 09:43:00;;;;;;;;;;;7.40;100.00;;;;;;5011400;28;19932;-69
2024/02/05 09:45:29;;;;;;;;;;;7.50;100.00;;;;;;4999811;28;19925;-68
2024/02/05 09:47:58;;;;;;;;;;;7.40;100.00;;;;;;4996848;28;19979;-68
2024/02/05 09:50:26;;;;;;;;;;;7.50;100.00;;;;;;5011281;28;20016;-69
2024/02/05 09:52:53;;;;;;;;;;;7.50;100.00;;;;;;5020208;28;20436;-68
2024/02/05 09:55:20;;;;;;;;;;;7.50;100.00;;;;;;5011313;28;19933;-68
2024/02/05 09:57:48;;;;;;;;;;;7.50;100.00;;;;;;5011894;28;19930;-68
2024/02/05 10:00:15;;;;;;;;;;;7.50;100.00;;;;;;5012565;28;19933;-68
2024/02/05 10:02:42;;;;;;;;;;;7.50;100.00;;;;;;5014094;28;19933;-68
2024/02/05 10:05:11;;;;;;;;;;;7.50;100.00;;;;;;5014297;28;20594;-68
2024/02/05 10:07:39;;;;;;;;;;;7.50;100.00;;;;;;5015821;28;19925;-68
2024/02/05 10:10:07;;;;;;;;;;;7.40;100.00;;;;;;5013285;28;19929;-68
2024/02/05 10:12:35;;;;;;;;;;;7.40;100.00;;;;;;5016608;28;19929;-68
2024/02/05 10:15:03;;;;;;;;;;;7.50;100.00;;;;;;5021071;28;19929;-68
2024/02/05 10:17:30;;;;;;;;;;;7.40;100.00;;;;;;5011704;28;20442;-68
2024/02/05 10:20:01;;;;;;;;;;;7.40;100.00;;;;;;5011453;28;20004;-68
2024/02/05 10:22:28;;;;;;;;;;;7.40;100.00;;;;;;5012903;28;19932;-68
2024/02/05 10:24:58;;;;;;;;;;;7.40;100.00;;;;;;5020401;28;19935;-68
2024/02/05 10:27:25;;;;;;;;;;;7.40;100.00;;;;;;5020448;28;19940;-68
2024/02/05 10:29:59;;;;;;;;;;;7.40;100.00;;;;;;4994082;28;19988;-68
2024/02/05 10:32:29;;;;;;;;;;;7.50;100.00;;;;;;5009976;28;20063;-68
2024/02/05 10:34:57;;;;;;;;;;;7.50;100.00;;;;;;5008966;28;19929;-68
2024/02/05 10:37:24;;;;;;;;;;;7.50;100.00;;;;;;5007869;28;19936;-68
2024/02/05 10:40:01;;;;;;;;;;;7.50;100.00;;;;;;5012691;28;19952;-68
2024/02/05 10:42:28;;;;;;;;;;;7.50;100.00;;;;;;5008756;28;20027;-68
2024/02/05 10:44:55;;;;;;;;;;;7.50;100.00;;;;;;5006939;28;19933;-68
2024/02/05 10:47:22;;;;;;;;;;;7.60;100.00;;;;;;5010571;28;19935;-68
2024/02/05 10:49:49;;;;;;;;;;;7.60;100.00;;;;;;5014533;28;20033;-68
2024/02/05 10:52:16;;;;;;;;;;;7.50;100.00;;;;;;4995562;28;19984;-68
2024/02/05 10:54:45;;;;;;;;;;;7.60;100.00;;;;;;5008292;28;19937;-68
2024/02/05 10:57:13;;;;;;;;;;;7.60;100.00;;;;;;5008545;28;19956;-68
2024/02/05 10:59:40;;;;;;;;;;;7.60;100.00;;;;;;5007980;28;19937;-68
2024/02/05 11:02:25;;;;;;;;;;;7.50;100.00;;;;;;5007683;28;19949;-68
2024/02/05 11:04:54;;;;;;;;;;;7.50;100.00;;;;;;5017065;28;19933;-68
2024/02/05 11:07:22;;;;;;;;;;;7.60;100.00;;;;;;4991548;28;19930;-68
2024/02/05 11:09:50;;;;;;;;;;;7.60;100.00;;;;;;5013796;28;20044;-68
2024/02/05 11:12:21;;;;;;;;;;;7.50;100.00;;;;;;5008351;28;19942;-68
2024/02/05 11:14:51;;;;;;;;;;;7.50;100.00;;;;;;5007743;28;20512;-68
2024/02/05 11:17:18;;;;;;;;;;;7.50;100.00;;;;;;5008022;28;19929;-68
2024/02/05 11:19:46;;;;;;;;;;;7.60;100.00;;;;;;5006496;28;20437;-68
2024/02/05 11:22:16;;;;;;;;;;;7.60;100.00;;;;;;5006318;28;19960;-68
2024/02/05 11:24:46;;;;;;;;;;;7.60;100.00;;;;;;5007144;28;19936;-68
2024/02/05 11:27:14;;;;;;;;;;;7.60;100.00;;;;;;5007434;28;19929;-68
2024/02/05 11:29:41;;;;;;;;;;;7.60;100.00;;;;;;5007562;28;19961;-68
2024/02/05 11:32:09;;;;;;;;;;;7.60;100.00;;;;;;5007542;28;19939;-68
2024/02/05 11:34:36;;;;;;;;;;;7.60;100.00;;;;;;5006661;28;19929;-68
2024/02/05 11:37:07;;;;;;;;;;;7.60;100.00;;;;;;4992002;28;19926;-68
2024/02/05 11:39:34;;;;;;;;;;;7.60;100.00;;;;;;5012611;28;20420;-68
2024/02/05 11:42:07;;;;;;;;;;;7.60;100.00;;;;;;5007404;28;19930;-68
2024/02/05 11:44:35;;;;;;;;;;;7.60;100.00;;;;;;5006467;28;19937;-68
2024/02/05 11:47:03;;;;;;;;;;;7.60;100.00;;;;;;5007784;28;19929;-68
2024/02/05 11:49:30;;;;;;;;;;;7.60;100.00;;;;;;5006679;28;20420;-68
2024/02/05 11:51:58;;;;;;;;;;;7.60;100.00;;;;;;5022335;28;19936;-68
2024/02/05 11:54:24;;;;;;;;;;;7.60;100.00;;;;;;5007811;28;20015;-68
2024/02/05 11:56:51;;;;;;;;;;;7.60;100.00;;;;;;5015082;28;20405;-68
2024/02/05 11:59:18;;;;;;;;;;;7.70;100.00;;;;;;5007394;28;19980;-68
2024/02/05 12:01:45;;;;;;;;;;;7.70;100.00;;;;;;5006409;28;19992;-68
2024/02/05 12:04:12;;;;;;;;;;;7.70;100.00;;;;;;5009683;28;19929;-68
2024/02/05 12:06:41;;;;;;;;;;;7.70;100.00;;;;;;5018897;28;19944;-68
2024/02/05 12:09:08;;;;;;;;;;;7.70;100.00;;;;;;5008169;28;19929;-69
2024/02/05 12:11:35;;;;;;;;;;;7.70;100.00;;;;;;5007057;28;20359;-68
2024/02/05 12:14:02;;;;;;;;;;;7.70;100.00;;;;;;5003462;28;20390;-68
2024/02/05 12:16:30;;;;;;;;;;;7.70;100.00;;;;;;4998801;28;19929;-69
2024/02/05 12:18:57;;;;;;;;;;;7.70;100.00;;;;;;5006790;28;20002;-68
2024/02/05 12:21:39;;;;;;;;;;;7.70;100.00;;;;;;5008886;28;19959;-68
2024/02/05 12:24:06;;;;;;;;;;;7.70;100.00;;;;;;5011755;28;19926;-68
2024/02/05 12:26:33;;;;;;;;;;;7.70;100.00;;;;;;5011004;28;19933;-68
2024/02/05 12:29:00;;;;;;;;;;;7.80;100.00;;;;;;5006901;28;19929;-68
2024/02/05 12:31:27;;;;;;;;;;;7.80;100.00;;;;;;5005813;28;19934;-68
2024/02/05 12:33:56;;;;;;;;;;;7.80;100.00;;;;;;4988368;28;19976;-68
2024/02/05 12:36:24;;;;;;;;;;;7.80;100.00;;;;;;5005498;28;20293;-68
2024/02/05 12:38:51;;;;;;;;;;;7.80;100.00;;;;;;4994229;28;20016;-68
2024/02/05 12:41:18;;;;;;;;;;;7.80;100.00;;;;;;5006598;28;19933;-68
2024/02/05 12:43:45;;;;;;;;;;;7.80;100.00;;;;;;5006263;28;19926;-68
2024/02/05 12:46:12;;;;;;;;;;;7.80;100.00;;;;;;5006891;28;20700;-68
2024/02/05 12:48:39;;;;;;;;;;;7.80;100.00;;;;;;5006811;28;19929;-68
2024/02/05 12:51:10;;;;;;;;;;;7.80;100.00;;;;;;5005396;28;20744;-68
2024/02/05 12:53:39;;;;;;;;;;;7.90;100.00;;;;;;4999355;28;19929;-68
2024/02/05 12:56:05;;;;;;;;;;;7.90;100.00;;;;;;5007763;28;20011;-68
2024/02/05 12:58:32;;;;;;;;;;;7.80;100.00;;;;;;5005420;28;19929;-68
2024/02/05 13:00:59;;;;;;;;;;;7.80;100.00;;;;;;5011907;28;19973;-68
2024/02/05 13:03:30;;;;;;;;;;;7.80;100.00;;;;;;5009536;28;19929;-68
2024/02/05 13:05:56;;;;;;;;;;;7.80;100.00;;;;;;5016825;28;19999;-68
2024/02/05 13:08:25;;;;;;;;;;;7.80;100.00;;;;;;5011797;28;19935;-68
2024/02/05 13:10:52;;;;;;;;;;;7.80;100.00;;;;;;5006767;28;19960;-68
2024/02/05 13:13:21;;;;;;;;;;;7.90;100.00;;;;;;5004653;28;20378;-68
2024/02/05 13:15:50;;;;;;;;;;;7.90;100.00;;;;;;5008038;28;19929;-68
2024/02/05 13:18:17;;;;;;;;;;;7.90;100.00;;;;;;5006007;28;19934;-68
2024/02/05 13:20:44;;;;;;;;;;;7.90;100.00;;;;;;4992593;28;19934;-68
2024/02/05 13:23:13;;;;;;;;;;;7.90;100.00;;;;;;5005956;28;19952;-68
2024/02/05 13:25:40;;;;;;;;;;;7.90;100.00;;;;;;4988865;28;19983;-68
2024/02/05 13:28:12;;;;;;;;;;;7.90;100.00;;;;;;5004807;28;19988;-68
2024/02/05 13:30:39;;;;;;;;;;;7.80;100.00;;;;;;5005874;28;20489;-68
2024/02/05 13:33:06;;;;;;;;;;;7.80;100.00;;;;;;5005249;28;20453;-68
2024/02/05 13:35:33;;;;;;;;;;;7.80;100.00;;;;;;4994193;28;19933;-68
2024/02/05 13:38:02;;;;;;;;;;;7.80;100.00;;;;;;4987585;28;19987;-68
2024/02/05 13:40:33;;;;;;;;;;;7.80;100.00;;;;;;5005950;28;19933;-68
2024/02/05 13:43:01;;;;;;;;;;;7.80;100.00;;;;;;5005797;28;19929;-68
2024/02/05 13:45:28;;;;;;;;;;;7.80;100.00;;;;;;4988101;28;19929;-68
2024/02/05 13:47:55;;;;;;;;;;;7.80;100.00;;;;;;5005232;28;19948;-68
2024/02/05 13:50:23;;;;;;;;;;;7.80;100.00;;;;;;5017736;28;19936;-68
2024/02/05 13:52:50;;;;;;;;;;;7.80;100.00;;;;;;5008782;28;19929;-68
2024/02/05 13:55:17;;;;;;;;;;;7.70;100.00;;;;;;5005336;28;19934;-68
2024/02/05 13:57:45;;;;;;;;;;;7.70;100.00;;;;;;5009934;28;20251;-68
2024/02/05 14:00:13;;;;;;;;;;;7.70;100.00;;;;;;4997086;28;19937;-68
2024/02/05 14:02:40;;;;;;;;;;;7.70;100.00;;;;;;5004998;28;19930;-68
2024/02/05 14:05:07;;;;;;;;;;;7.70;100.00;;;;;;5023388;28;20026;-67
2024/02/05 14:07:35;;;;;;;;;;;7.70;100.00;;;;;;5009299;28;19930;-68
2024/02/05 14:10:02;;;;;;;;;;;7.70;100.00;;;;;;5008338;28;19980;-68
2024/02/05 14:12:29;;;;;;;;;;;7.70;100.00;;;;;;5021886;28;19936;-68
2024/02/05 14:14:56;;;;;;;;;;;7.70;100.00;;;;;;4993562;28;20499;-67
2024/02/05 14:17:23;;;;;;;;;;;7.70;100.00;;;;;;5011090;28;20052;-68